Time;durP1;ratioP1;P1;durP2;ratioP2;P2;SDS_P1;SDS_P2;PMS_P1;PMS_P2;Temp;Humidity;BMP_temperature;BMP_pressure;BME280_temperature;BME280_humidity;BME280_pressure;Samples;Min_cycle;Max_cycle;Signal;HPM_P1;HPM_P2
2022/01/08 00:00:25;;;;;;;;;0.67;0.67;;;;;7.62;63.44;101039.25;4996726;28;45432;-69
2022/01/08 00:02:52;;;;;;;;;0.00;0.00;;;;;7.70;63.00;101048.38;5012222;28;45490;-69
2022/01/08 00:05:18;;;;;;;;;1.00;0.00;;;;;7.63;62.85;101040.94;5012884;28;47332;-69
2022/01/08 00:07:46;;;;;;;;;0.00;0.00;;;;;7.43;62.28;101032.84;5014512;28;45377;-74
2022/01/08 00:10:12;;;;;;;;;0.00;0.00;;;;;7.17;62.90;101010.97;4995265;28;45537;-70
2022/01/08 00:12:38;;;;;;;;;1.00;1.00;;;;;7.45;62.74;101067.94;4994397;28;45379;-69
2022/01/08 00:15:05;;;;;;;;;0.00;0.00;;;;;7.47;63.28;101076.59;4996929;28;45846;-69
2022/01/08 00:17:34;;;;;;;;;1.67;0.00;;;;;7.49;63.48;101080.81;4998368;28;45453;-70
2022/01/08 00:20:01;;;;;;;;;0.00;0.00;;;;;7.43;63.14;101099.81;4998213;28;45661;-70
2022/01/08 00:22:26;;;;;;;;;0.00;0.00;;;;;7.31;62.92;101076.91;4998448;28;45473;-69
2022/01/08 00:24:55;;;;;;;;;0.00;0.00;;;;;7.26;63.28;101085.19;4999226;28;46677;-70
2022/01/08 00:27:22;;;;;;;;;1.00;1.00;;;;;7.36;63.71;101097.72;4999939;28;45430;-71
2022/01/08 00:29:47;;;;;;;;;1.00;1.00;;;;;7.29;63.48;101095.53;4999870;28;45318;-69
2022/01/08 00:32:14;;;;;;;;;1.67;1.67;;;;;7.22;63.56;101090.84;4999901;28;45208;-70
2022/01/08 00:34:40;;;;;;;;;0.00;0.00;;;;;7.18;63.40;101078.78;4999568;28;45895;-70
2022/01/08 00:37:06;;;;;;;;;0.00;0.00;;;;;7.29;63.32;101110.56;4999570;28;45340;-70
2022/01/08 00:39:32;;;;;;;;;0.00;0.00;;;;;7.20;63.32;101095.38;4999926;28;45263;-69
2022/01/08 00:41:57;;;;;;;;;2.00;0.00;;;;;7.27;63.60;101109.84;4982319;28;45558;-69
2022/01/08 00:44:22;;;;;;;;;0.67;0.33;;;;;6.96;63.85;101064.50;4982234;28;45413;-69
2022/01/08 00:46:48;;;;;;;;;0.67;0.00;;;;;7.19;63.50;101109.53;4999693;28;45343;-70
2022/01/08 00:49:13;;;;;;;;;0.00;0.00;;;;;7.21;63.90;101121.72;4999833;28;45563;-70
2022/01/08 00:51:38;;;;;;;;;0.00;0.00;;;;;7.22;63.48;101125.22;4982129;28;45304;-70
2022/01/08 00:54:04;;;;;;;;;0.00;0.00;;;;;7.21;63.84;101132.31;4999418;28;46052;-69
2022/01/08 00:56:29;;;;;;;;;0.00;0.00;;;;;7.14;64.06;101127.56;4981399;28;45909;-70
2022/01/08 00:58:55;;;;;;;;;2.00;0.00;;;;;7.21;64.09;101145.53;4999555;28;45491;-70
2022/01/08 01:01:20;;;;;;;;;1.00;1.00;;;;;7.19;64.81;101146.56;4981909;28;45525;-69
2022/01/08 01:03:45;;;;;;;;;1.33;1.00;;;;;7.24;64.60;101147.09;4999020;28;46478;-71
2022/01/08 01:06:11;;;;;;;;;0.67;0.67;;;;;7.17;64.78;101129.97;4999473;28;45429;-70
2022/01/08 01:08:36;;;;;;;;;0.33;0.33;;;;;7.25;64.74;101138.22;4999636;28;45180;-71
2022/01/08 01:11:01;;;;;;;;;0.00;0.00;;;;;7.27;65.07;101152.16;4982012;28;45528;-69
2022/01/08 01:13:27;;;;;;;;;3.00;2.00;;;;;7.17;64.95;101140.56;4999166;28;46153;-69
2022/01/08 01:15:53;;;;;;;;;0.00;0.00;;;;;7.29;64.37;101155.53;4999335;28;45378;-70
2022/01/08 01:18:18;;;;;;;;;2.00;1.00;;;;;7.31;65.23;101161.53;5006504;28;45519;-71
2022/01/08 01:20:44;;;;;;;;;4.33;2.33;;;;;7.17;65.00;101129.97;5017748;28;45426;-70
2022/01/08 01:23:18;;;;;;;;;0.67;0.67;;;;;7.20;64.75;101135.03;5018657;28;46079;-70
2022/01/08 01:25:51;;;;;;;;;1.00;1.00;;;;;7.20;64.89;101129.75;5017859;28;45382;-70
2022/01/08 01:41:52;;;;;;;;;1.00;1.00;;;;;7.26;64.38;101142.53;4999031;28;45441;-70
2022/01/08 01:47:01;;;;;;;;;1.00;1.00;;;;;7.26;63.69;101150.47;5018245;28;45365;-69
2022/01/08 01:49:47;;;;;;;;;0.00;0.00;;;;;7.26;64.17;101146.03;5018016;28;45559;-69
2022/01/08 01:52:15;;;;;;;;;3.00;2.00;;;;;7.28;63.65;101154.69;5015317;28;45480;-69
2022/01/08 01:54:42;;;;;;;;;1.00;1.00;;;;;7.18;63.97;101144.88;5016877;28;45524;-70
2022/01/08 01:57:10;;;;;;;;;1.33;1.00;;;;;7.31;63.99;101158.91;5016530;28;45321;-69
2022/01/08 01:59:36;;;;;;;;;2.00;1.00;;;;;7.12;63.59;101138.25;5017761;28;45394;-69
2022/01/08 02:02:04;;;;;;;;;1.00;1.00;;;;;7.25;63.69;101170.78;5018261;28;45561;-69
2022/01/08 02:04:30;;;;;;;;;2.67;1.33;;;;;7.19;63.79;101165.91;5017940;28;46689;-69
2022/01/08 02:06:55;;;;;;;;;3.00;3.00;;;;;7.21;64.18;101156.09;5018079;28;45361;-69
2022/01/08 02:09:21;;;;;;;;;1.00;1.00;;;;;7.17;63.47;101135.25;5018173;28;45394;-69
2022/01/08 02:12:06;;;;;;;;;1.00;0.67;;;;;7.26;63.18;101143.38;5018758;28;45505;-68
2022/01/08 02:14:36;;;;;;;;;0.00;0.00;;;;;7.27;63.46;101144.22;5000432;28;45562;-70
2022/01/08 02:17:06;;;;;;;;;1.00;1.00;;;;;7.27;63.30;101150.34;4998074;28;45512;-69
2022/01/08 02:19:32;;;;;;;;;0.00;0.00;;;;;7.05;63.28;101138.81;4998182;28;45338;-69
2022/01/08 02:22:00;;;;;;;;;1.00;1.00;;;;;7.19;63.33;101175.66;4998297;28;45390;-69
2022/01/08 02:24:26;;;;;;;;;1.67;1.67;;;;;7.18;63.44;101168.69;4997774;28;47384;-69
2022/01/08 02:26:53;;;;;;;;;2.00;1.67;;;;;7.20;62.78;101169.41;4997915;28;45370;-68
2022/01/08 02:29:21;;;;;;;;;1.33;1.33;;;;;7.16;62.93;101171.44;4997954;28;45216;-70
2022/01/08 02:31:57;;;;;;;;;4.00;3.00;;;;;6.87;63.10;101123.34;4998149;28;45417;-70
2022/01/08 02:34:25;;;;;;;;;0.00;0.00;;;;;7.20;63.40;101179.97;4997634;28;46338;-70
2022/01/08 02:36:51;;;;;;;;;2.00;1.00;;;;;7.23;63.42;101171.84;4997522;28;45280;-69
2022/01/08 02:39:16;;;;;;;;;3.00;1.00;;;;;7.22;63.27;101175.47;4997960;28;45394;-69
2022/01/08 02:41:42;;;;;;;;;2.00;2.00;;;;;7.23;62.90;101175.34;4998127;28;45452;-69
2022/01/08 02:44:07;;;;;;;;;2.00;1.00;;;;;7.19;63.09;101176.50;4997574;28;46980;-69
2022/01/08 02:46:33;;;;;;;;;0.33;0.33;;;;;7.24;62.75;101176.19;4997993;28;45292;-70
2022/01/08 02:48:59;;;;;;;;;0.00;0.00;;;;;7.21;62.50;101174.63;4997874;28;45459;-69
2022/01/08 02:51:24;;;;;;;;;1.00;0.00;;;;;7.16;62.55;101162.66;4998172;28;45523;-68
2022/01/08 02:53:51;;;;;;;;;0.67;0.67;;;;;7.18;62.73;101163.38;4997485;28;46389;-69
2022/01/08 02:56:16;;;;;;;;;2.00;1.00;;;;;7.18;63.14;101173.97;4996153;28;45627;-69
2022/01/08 02:58:41;;;;;;;;;2.00;0.67;;;;;7.08;63.09;101172.97;4997572;28;45355;-71
2022/01/08 03:01:07;;;;;;;;;0.00;0.00;;;;;7.05;63.11;101189.06;4998241;28;45452;-69
2022/01/08 03:03:32;;;;;;;;;0.67;0.00;;;;;7.04;64.16;101198.78;4997468;28;46614;-70
2022/01/08 03:05:58;;;;;;;;;1.33;1.00;;;;;6.98;63.57;101188.63;4997489;28;45505;-69
2022/01/08 03:08:23;;;;;;;;;1.00;1.00;;;;;6.85;64.19;101175.47;4997296;28;49788;-70
2022/01/08 03:10:48;;;;;;;;;0.00;0.00;;;;;6.96;64.30;101188.75;4997501;28;45437;-69
2022/01/08 03:13:13;;;;;;;;;1.00;1.00;;;;;6.94;64.04;101195.94;4997304;28;46677;-69
2022/01/08 03:15:39;;;;;;;;;1.00;1.00;;;;;6.99;64.23;101182.38;4997500;28;45314;-69
2022/01/08 03:18:06;;;;;;;;;0.33;0.33;;;;;6.94;64.30;101177.44;4997294;28;45168;-70
2022/01/08 03:20:34;;;;;;;;;1.00;1.00;;;;;6.97;64.21;101179.84;4997767;28;45338;-69
2022/01/08 03:23:03;;;;;;;;;1.00;1.00;;;;;6.99;64.00;101180.59;4997281;28;45869;-69
2022/01/08 03:25:30;;;;;;;;;1.00;1.00;;;;;7.03;63.96;101169.81;4996976;28;45386;-69
2022/01/08 03:27:56;;;;;;;;;0.00;0.00;;;;;6.91;63.89;101158.31;4997143;28;45460;-69
2022/01/08 03:30:23;;;;;;;;;1.67;0.67;;;;;6.73;63.40;101123.47;4997558;28;45504;-69
2022/01/08 03:32:48;;;;;;;;;0.00;0.00;;;;;6.87;64.35;101155.06;4979316;28;45871;-69
2022/01/08 03:35:14;;;;;;;;;1.33;0.33;;;;;6.81;64.04;101136.13;4997214;28;46705;-69
2022/01/08 03:37:40;;;;;;;;;0.00;0.00;;;;;6.77;63.79;101146.06;4997341;28;45500;-71
2022/01/08 03:40:06;;;;;;;;;0.67;0.67;;;;;6.75;64.47;101155.06;4997493;28;45443;-69
2022/01/08 03:42:32;;;;;;;;;2.33;1.00;;;;;6.43;64.01;101113.31;4996934;28;46463;-70
2022/01/08 03:44:58;;;;;;;;;2.00;0.67;;;;;6.69;64.80;101167.78;4995651;28;45509;-70
2022/01/08 03:49:49;;;;;;;;;0.33;0.33;;;;;6.57;64.85;101163.34;4996459;28;45400;-69
2022/01/08 03:52:14;;;;;;;;;1.00;1.00;;;;;6.71;64.92;101178.22;4997348;28;46632;-70
2022/01/08 03:54:40;;;;;;;;;1.33;1.00;;;;;6.57;64.51;101158.06;4996753;28;45561;-70
2022/01/08 03:57:06;;;;;;;;;3.33;1.00;;;;;6.71;64.52;101178.22;4979336;28;45449;-71
2022/01/08 03:59:31;;;;;;;;;0.00;0.00;;;;;6.75;63.99;101171.78;4997293;28;45310;-69
2022/01/08 04:01:57;;;;;;;;;1.00;1.00;;;;;6.53;64.78;101140.75;4996606;28;46638;-69
2022/01/08 04:04:22;;;;;;;;;2.67;1.00;;;;;6.67;63.93;101163.56;5006292;28;45479;-68
2022/01/08 04:06:48;;;;;;;;;1.00;0.00;;;;;6.72;64.31;101166.72;5016694;28;45311;-69
2022/01/08 04:09:14;;;;;;;;;0.33;0.33;;;;;6.49;65.17;101122.59;5016849;28;45163;-69
2022/01/08 04:11:39;;;;;;;;;0.33;0.33;;;;;6.70;64.27;101176.53;5015236;28;47372;-69
2022/01/08 04:14:05;;;;;;;;;2.00;2.00;;;;;6.71;64.60;101180.88;5016485;28;45344;-70
2022/01/08 04:16:33;;;;;;;;;1.00;1.00;;;;;6.72;64.52;101183.41;5016705;28;45275;-69
2022/01/08 04:18:59;;;;;;;;;2.00;2.00;;;;;6.65;64.77;101182.16;5016356;28;45515;-69
2022/01/08 04:23:56;;;;;;;;;1.00;1.00;;;;;6.65;64.90;101176.03;5016121;28;45475;-69
2022/01/08 04:26:22;;;;;;;;;1.33;0.00;;;;;6.39;65.26;101132.94;5016160;28;45290;-69
2022/01/08 04:28:48;;;;;;;;;0.00;0.00;;;;;6.52;65.54;101161.97;5016606;28;45349;-69
2022/01/08 04:31:14;;;;;;;;;0.00;0.00;;;;;6.68;65.28;101171.38;5016177;28;47775;-69
2022/01/08 04:33:39;;;;;;;;;1.00;1.00;;;;;6.66;65.13;101175.06;5012044;28;45541;-70
2022/01/08 04:36:05;;;;;;;;;1.00;1.00;;;;;6.70;65.80;101173.91;4996452;28;45277;-70
2022/01/08 04:38:32;;;;;;;;;2.00;1.00;;;;;6.72;64.99;101164.91;4996603;28;45816;-69
2022/01/08 04:40:58;;;;;;;;;1.00;1.00;;;;;6.02;65.51;101055.50;4996101;28;47176;-68
2022/01/08 04:43:23;;;;;;;;;1.00;1.00;;;;;6.50;66.14;101140.97;4996163;28;45491;-69
2022/01/08 04:45:50;;;;;;;;;3.00;2.33;;;;;6.66;65.95;101144.22;4996471;28;45517;-69
2022/01/08 04:48:15;;;;;;;;;0.00;0.00;;;;;6.54;66.26;101136.31;4978448;28;45486;-69
2022/01/08 04:50:41;;;;;;;;;2.33;1.00;;;;;6.67;66.72;101163.56;4996007;28;45498;-70
2022/01/08 04:53:06;;;;;;;;;1.00;1.00;;;;;6.70;66.31;101169.47;4994882;28;45380;-70
2022/01/08 04:55:32;;;;;;;;;2.00;2.00;;;;;6.59;66.36;101163.22;4996346;28;45686;-69
2022/01/08 04:57:57;;;;;;;;;1.00;1.00;;;;;6.75;66.26;101198.19;4996392;28;45326;-72
2022/01/08 05:00:22;;;;;;;;;2.67;1.00;;;;;6.73;66.26;101194.81;4997020;28;46596;-69
2022/01/08 05:02:48;;;;;;;;;1.67;0.00;;;;;6.74;66.30;101196.50;4999514;28;45337;-68
2022/01/08 05:05:14;;;;;;;;;1.00;1.00;;;;;6.79;66.72;101201.47;4999813;28;45347;-70
2022/01/08 05:07:40;;;;;;;;;1.00;0.00;;;;;6.81;66.61;101202.19;4999679;28;45513;-72
2022/01/08 05:10:07;;;;;;;;;1.67;1.00;;;;;6.88;66.34;101204.31;4999226;28;45699;-70
2022/01/08 05:12:33;;;;;;;;;1.00;1.00;;;;;6.91;66.59;101204.09;4999370;28;45421;-69
2022/01/08 05:15:01;;;;;;;;;0.67;0.67;;;;;6.81;66.53;101195.13;4999396;28;45517;-70
2022/01/08 05:17:34;;;;;;;;;0.00;0.00;;;;;6.89;67.35;101192.78;4999374;28;45463;-70
2022/01/08 05:20:02;;;;;;;;;1.00;1.00;;;;;6.91;66.74;101188.22;4999034;28;47576;-73
2022/01/08 05:22:30;;;;;;;;;0.33;0.00;;;;;6.79;67.42;101154.72;4999082;28;45261;-69
2022/01/08 05:24:56;;;;;;;;;1.00;0.33;;;;;6.98;66.77;101183.34;4999321;28;45258;-70
2022/01/08 05:27:22;;;;;;;;;1.00;1.00;;;;;7.07;66.58;101182.69;4999518;28;45354;-70
2022/01/08 05:29:50;;;;;;;;;1.00;1.00;;;;;7.04;66.76;101182.91;4998565;28;47097;-69
2022/01/08 05:32:17;;;;;;;;;0.00;0.00;;;;;7.16;66.23;101197.03;4998967;28;45407;-70
2022/01/08 05:34:44;;;;;;;;;0.33;0.33;;;;;7.18;66.34;101189.84;5013622;28;45322;-70
2022/01/08 05:37:10;;;;;;;;;0.67;0.00;;;;;7.12;65.92;101164.69;5019032;28;45277;-69
2022/01/08 05:39:35;;;;;;;;;2.00;0.00;;;;;7.06;66.45;101156.38;5018406;28;45957;-70
2022/01/08 05:42:01;;;;;;;;;1.33;0.33;;;;;7.19;66.51;101168.56;5018627;28;45420;-69
2022/01/08 05:44:26;;;;;;;;;1.00;1.00;;;;;6.82;66.71;101103.50;5018732;28;45239;-69
2022/01/08 05:46:51;;;;;;;;;1.33;0.33;;;;;6.93;66.38;101120.25;5018930;28;45544;-71
2022/01/08 05:49:17;;;;;;;;;2.67;1.00;;;;;7.28;66.60;101167.91;5017147;28;48557;-70
2022/01/08 05:51:43;;;;;;;;;2.00;1.00;;;;;7.29;66.69;101147.59;5000914;28;45251;-70
2022/01/08 05:54:08;;;;;;;;;2.00;1.00;;;;;6.40;66.13;100990.22;5018610;28;45311;-69
2022/01/08 05:56:34;;;;;;;;;0.00;0.00;;;;;7.35;65.94;101152.41;5018091;28;45622;-69
2022/01/08 05:59:00;;;;;;;;;1.33;1.00;;;;;7.36;66.96;101146.16;5018140;28;46653;-70
2022/01/08 06:01:25;;;;;;;;;1.00;1.00;;;;;7.25;66.27;101154.06;5018482;28;45435;-69
2022/01/08 06:03:50;;;;;;;;;2.00;0.33;;;;;7.27;67.16;101152.16;5018383;28;45339;-69
2022/01/08 06:06:16;;;;;;;;;2.00;2.00;;;;;7.20;66.44;101148.25;5018586;28;45444;-69
2022/01/08 06:08:41;;;;;;;;;2.00;2.00;;;;;7.22;66.83;101159.59;5018519;28;46746;-69
2022/01/08 06:11:07;;;;;;;;;1.00;1.00;;;;;7.21;66.66;101163.19;5017966;28;45408;-70
2022/01/08 06:13:32;;;;;;;;;3.00;2.00;;;;;7.23;66.89;101171.84;5017607;28;45311;-69
2022/01/08 06:15:57;;;;;;;;;1.67;1.67;;;;;6.68;66.46;101075.41;5000710;28;45581;-69
2022/01/08 06:18:23;;;;;;;;;0.00;0.00;;;;;7.12;67.06;101159.41;5027506;28;46463;-69
2022/01/08 06:20:48;;;;;;;;;1.00;1.00;;;;;7.13;67.57;101166.38;5037934;28;45305;-69
2022/01/08 06:23:13;;;;;;;;;1.00;1.00;;;;;6.67;67.06;101074.56;5037848;28;45429;-70
2022/01/08 06:25:43;;;;;;;;;3.00;0.00;;;;;7.01;66.72;101135.56;5036615;28;45423;-69
2022/01/08 06:28:10;;;;;;;;;2.00;1.00;;;;;7.03;67.19;101130.16;5037384;28;48516;-69
2022/01/08 06:30:36;;;;;;;;;3.00;1.67;;;;;7.05;67.70;101136.19;5037450;28;45536;-70
2022/01/08 06:33:02;;;;;;;;;2.67;2.67;;;;;7.04;67.53;101145.06;5037669;28;45323;-70
2022/01/08 06:35:27;;;;;;;;;2.33;1.00;;;;;6.80;67.54;101100.94;5037537;28;45581;-70
2022/01/08 06:37:52;;;;;;;;;2.00;2.00;;;;;7.05;67.12;101144.09;5037302;28;47663;-71
2022/01/08 06:40:18;;;;;;;;;1.00;1.00;;;;;7.12;67.50;101161.19;5037316;28;45258;-70
2022/01/08 06:42:43;;;;;;;;;2.00;1.00;;;;;7.08;67.83;101143.88;5037812;28;45314;-70
2022/01/08 06:45:09;;;;;;;;;0.67;0.67;;;;;6.99;67.48;101111.84;5037631;28;45552;-69
2022/01/08 06:47:34;;;;;;;;;2.67;2.00;;;;;6.84;67.35;101081.28;5037437;28;46603;-68
2022/01/08 06:50:00;;;;;;;;;3.33;2.33;;;;;7.11;67.98;101125.16;5037457;28;45433;-70
2022/01/08 06:52:25;;;;;;;;;2.33;1.33;;;;;6.98;67.66;101110.16;5037840;28;45514;-69
2022/01/08 06:54:51;;;;;;;;;2.00;2.00;;;;;6.97;67.68;101119.06;5037356;28;45540;-69
2022/01/08 06:57:16;;;;;;;;;3.33;3.33;;;;;7.01;67.72;101125.00;5037012;28;45515;-69
2022/01/08 06:59:42;;;;;;;;;2.00;2.00;;;;;7.01;67.58;101123.19;5037009;28;45554;-69
2022/01/08 07:02:07;;;;;;;;;1.00;1.00;;;;;7.00;67.71;101124.13;5036989;28;45153;-69
2022/01/08 07:04:32;;;;;;;;;2.00;1.00;;;;;7.15;67.62;101131.88;5019806;28;45677;-69
2022/01/08 07:06:58;;;;;;;;;2.00;2.00;;;;;7.17;67.72;101124.69;5037188;28;46512;-69
2022/01/08 07:09:24;;;;;;;;;3.00;3.00;;;;;7.21;67.55;101128.81;5036944;28;45269;-70
2022/01/08 07:11:50;;;;;;;;;2.00;2.00;;;;;7.16;67.24;101129.13;5037152;28;45339;-69
2022/01/08 07:14:15;;;;;;;;;4.00;2.00;;;;;7.08;67.56;101104.22;5037311;28;45278;-70
2022/01/08 07:16:41;;;;;;;;;3.00;3.00;;;;;7.16;67.67;101117.72;5019093;28;47630;-70
2022/01/08 07:19:06;;;;;;;;;2.00;2.00;;;;;6.66;68.01;101032.41;5018799;28;45472;-69
2022/01/08 07:21:31;;;;;;;;;5.67;2.67;;;;;7.14;67.97;101111.69;5037074;28;45333;-69
2022/01/08 07:23:57;;;;;;;;;2.00;2.00;;;;;7.20;67.83;101113.88;5036157;28;45451;-72
2022/01/08 07:26:22;;;;;;;;;4.33;4.33;;;;;7.11;67.44;101086.31;5019600;28;46415;-69
2022/01/08 07:28:47;;;;;;;;;5.33;4.00;;;;;7.23;67.25;101092.53;5017031;28;45250;-69
2022/01/08 07:31:13;;;;;;;;;1.00;1.00;;;;;7.12;68.03;101061.56;5017118;28;45902;-69
2022/01/08 07:33:38;;;;;;;;;4.67;2.00;;;;;7.23;68.36;101087.22;4999497;28;45535;-68
2022/01/08 07:36:03;;;;;;;;;2.00;1.00;;;;;7.14;68.47;101090.53;5016847;28;46399;-70
2022/01/08 07:38:29;;;;;;;;;3.67;3.67;;;;;7.04;69.18;101065.75;5016830;28;45432;-69
2022/01/08 07:40:54;;;;;;;;;2.00;2.00;;;;;7.02;69.05;101060.59;5017330;28;45464;-70
2022/01/08 07:43:20;;;;;;;;;2.00;2.00;;;;;7.00;69.36;101052.75;5025692;28;45511;-70
2022/01/08 07:45:46;;;;;;;;;2.00;2.00;;;;;7.08;70.13;101070.69;5016554;28;46286;-69
2022/01/08 07:48:11;;;;;;;;;1.33;1.33;;;;;6.93;69.94;101038.31;5033988;28;45374;-69
2022/01/08 07:50:36;;;;;;;;;4.00;3.00;;;;;6.99;69.88;101040.47;5036734;28;45282;-69
2022/01/08 07:53:02;;;;;;;;;2.67;2.67;;;;;6.99;69.71;101044.94;5026826;28;45403;-70
2022/01/08 07:55:27;;;;;;;;;1.00;1.00;;;;;7.17;70.05;101077.09;5034721;28;45540;-70
2022/01/08 07:57:52;;;;;;;;;2.33;2.33;;;;;6.88;69.69;101023.75;5027940;28;45504;-71
2022/01/08 08:00:18;;;;;;;;;4.00;3.00;;;;;6.89;69.58;101013.06;5036297;28;45419;-70
2022/01/08 08:02:43;;;;;;;;;2.67;2.67;;;;;7.19;69.66;101068.09;5033982;28;45580;-71
2022/01/08 08:05:09;;;;;;;;;3.33;2.00;;;;;7.19;69.68;101057.50;5035479;28;46571;-69
2022/01/08 08:07:37;;;;;;;;;3.00;3.00;;;;;7.20;69.72;101048.59;5028899;28;45250;-70
2022/01/08 08:10:08;;;;;;;;;4.00;3.00;;;;;6.35;70.22;100913.13;5022252;28;45539;-69
2022/01/08 08:12:34;;;;;;;;;3.33;3.33;;;;;7.10;69.97;101041.50;5024932;28;45463;-71
2022/01/08 08:14:59;;;;;;;;;4.00;4.00;;;;;7.15;69.80;101032.25;5029330;28;45718;-71
2022/01/08 08:17:25;;;;;;;;;7.00;3.67;;;;;6.61;69.62;100937.66;5032621;28;45717;-69
2022/01/08 08:19:50;;;;;;;;;5.00;3.67;;;;;7.23;69.80;101029.06;5015993;28;45377;-70
2022/01/08 08:22:16;;;;;;;;;2.67;2.67;;;;;7.27;70.13;101027.84;5015857;28;45311;-71
2022/01/08 08:24:41;;;;;;;;;5.00;3.00;;;;;7.29;69.84;101020.66;5007313;28;45689;-69
2022/01/08 08:27:06;;;;;;;;;4.67;4.67;;;;;7.34;69.89;101026.44;5003017;28;45463;-70
2022/01/08 08:29:32;;;;;;;;;6.67;4.00;;;;;7.34;70.38;101023.78;5005878;28;45505;-70
2022/01/08 08:31:57;;;;;;;;;7.00;4.00;;;;;7.29;70.19;101008.25;5005533;28;45525;-70
2022/01/08 08:34:23;;;;;;;;;5.33;4.00;;;;;7.42;70.78;101018.78;5009406;28;45445;-70
2022/01/08 08:36:48;;;;;;;;;4.00;4.00;;;;;7.29;70.20;100988.91;5019275;28;45398;-69
2022/01/08 08:39:14;;;;;;;;;4.00;3.67;;;;;7.10;70.47;100944.53;5006088;28;45453;-71
2022/01/08 08:41:39;;;;;;;;;4.00;4.00;;;;;7.04;71.29;100939.72;5010810;28;45750;-71
2022/01/08 08:44:04;;;;;;;;;4.33;4.33;;;;;7.51;71.84;101012.75;5012407;28;46496;-70
2022/01/08 08:46:30;;;;;;;;;6.33;5.33;;;;;7.55;71.87;101006.25;5019457;28;45306;-70
2022/01/08 08:48:55;;;;;;;;;5.67;5.00;;;;;7.49;72.24;100990.88;5004377;28;45332;-70
2022/01/08 08:51:20;;;;;;;;;6.33;5.33;;;;;7.58;72.16;101006.03;4999613;28;45382;-71
2022/01/08 08:53:46;;;;;;;;;4.00;3.00;;;;;6.96;72.17;100882.13;4991007;28;46499;-70
2022/01/08 08:56:11;;;;;;;;;5.67;4.00;;;;;7.65;72.13;100981.75;5007377;28;45474;-69
2022/01/08 08:58:37;;;;;;;;;4.00;4.00;;;;;7.27;72.49;100906.22;5003192;28;45724;-70
2022/01/08 09:01:02;;;;;;;;;6.00;5.67;;;;;7.71;72.03;100981.28;4999405;28;45441;-71
2022/01/08 09:03:28;;;;;;;;;3.33;3.33;;;;;7.79;72.38;100990.28;4998969;28;46294;-70
2022/01/08 09:05:53;;;;;;;;;10.67;5.67;;;;;7.74;72.79;100986.31;4999010;28;45246;-70
2022/01/08 09:08:18;;;;;;;;;6.67;4.00;;;;;7.79;72.41;100978.84;4987077;28;45322;-71
2022/01/08 09:10:44;;;;;;;;;7.00;5.33;;;;;7.74;72.42;100970.44;5013587;28;45333;-70
2022/01/08 09:13:09;;;;;;;;;7.33;5.00;;;;;7.83;72.67;100977.69;5017541;28;46716;-69
2022/01/08 09:15:41;;;;;;;;;17.33;13.67;;;;;7.78;72.73;100953.34;5008550;28;45224;-70
2022/01/08 09:18:07;;;;;;;;;6.67;6.33;;;;;7.90;73.02;100966.47;5017982;28;45446;-69
2022/01/08 09:20:33;;;;;;;;;4.00;2.00;;;;;7.91;72.69;100956.72;5018715;28;45237;-71
2022/01/08 09:22:59;;;;;;;;;8.33;8.33;;;;;7.90;72.70;100949.75;5014145;28;45435;-70
2022/01/08 09:25:25;;;;;;;;;10.33;7.33;;;;;7.81;72.78;100924.03;4995207;28;45492;-71
2022/01/08 09:27:53;;;;;;;;;11.00;7.67;;;;;7.99;72.86;100930.47;5018193;28;45487;-70
2022/01/08 09:30:18;;;;;;;;;12.67;10.67;;;;;8.00;73.42;100940.09;5005299;28;45300;-70
2022/01/08 09:32:44;;;;;;;;;6.33;5.33;;;;;7.98;73.24;100936.72;4998716;28;45231;-70
2022/01/08 09:35:12;;;;;;;;;14.67;8.00;;;;;8.10;73.56;100941.06;4996795;28;45334;-70
2022/01/08 09:37:39;;;;;;;;;7.00;6.00;;;;;7.72;73.47;100882.38;5007248;28;45281;-69
2022/01/08 09:40:07;;;;;;;;;8.00;5.67;;;;;8.20;73.89;100941.13;5011993;28;45373;-70
2022/01/08 09:45:28;;;;;;;;;9.33;5.67;;;;;8.24;73.87;100927.56;5006778;28;45422;-70
2022/01/08 09:47:53;;;;;;;;;5.00;5.00;;;;;8.27;74.45;100922.97;5015021;28;45616;-71
2022/01/08 09:50:21;;;;;;;;;9.00;8.33;;;;;8.20;74.36;100910.19;4999380;28;45207;-71
2022/01/08 09:52:47;;;;;;;;;10.00;7.33;;;;;8.30;74.52;100914.75;5013207;28;46200;-68
2022/01/08 09:55:12;;;;;;;;;11.67;10.67;;;;;8.34;74.41;100910.94;5012619;28;45599;-70
2022/01/08 09:57:38;;;;;;;;;12.33;7.33;;;;;8.21;73.95;100874.00;5003591;28;45550;-71
2022/01/08 10:00:13;;;;;;;;;9.33;8.00;;;;;8.41;74.64;100905.03;5016715;28;45305;-71
2022/01/08 10:02:38;;;;;;;;;9.67;8.00;;;;;7.83;74.43;100795.03;4983666;28;47813;-76
2022/01/08 10:05:22;;;;;;;;;9.00;9.00;;;;;8.33;74.68;100862.38;5006354;28;45164;-72
2022/01/08 10:07:59;;;;;;;;;8.00;8.00;;;;;8.56;74.76;100876.38;5006142;28;45498;-70
2022/01/08 10:10:27;;;;;;;;;7.67;7.67;;;;;8.57;74.67;100867.47;5018355;28;45271;-72
2022/01/08 10:12:59;;;;;;;;;7.00;7.00;;;;;8.72;74.61;100868.84;4999971;28;46528;-72
2022/01/08 10:18:33;;;;;;;;;11.00;8.67;;;;;8.87;74.19;100866.72;5016603;28;45408;-70
2022/01/08 10:21:02;;;;;;;;;10.67;6.00;;;;;8.92;73.90;100859.22;5017494;28;45445;-69
2022/01/08 10:23:33;;;;;;;;;12.67;11.00;;;;;8.89;74.12;100843.56;5015752;28;47970;-69
2022/01/08 10:26:10;;;;;;;;;15.33;9.00;;;;;9.04;73.95;100847.56;5016262;28;45513;-70
2022/01/08 10:28:59;;;;;;;;;11.00;8.67;;;;;9.12;74.65;100852.19;5016034;28;45505;-68
2022/01/08 10:31:39;;;;;;;;;9.33;9.33;;;;;9.17;74.13;100836.72;5015738;28;45334;-68
2022/01/08 10:34:06;;;;;;;;;12.00;7.33;;;;;9.15;74.84;100838.66;5016225;28;45781;-68
2022/01/08 10:36:46;;;;;;;;;10.33;7.00;;;;;9.14;75.46;100829.03;4997507;28;45232;-71
2022/01/08 10:39:20;;;;;;;;;5.67;5.00;;;;;9.17;75.28;100826.09;4989299;28;45655;-72
2022/01/08 10:41:50;;;;;;;;;8.00;5.00;;;;;9.14;75.30;100808.66;4999333;28;45465;-72
2022/01/08 10:44:26;;;;;;;;;6.00;4.00;;;;;9.05;75.38;100790.91;5016804;28;47127;-69
2022/01/08 10:46:52;;;;;;;;;6.67;5.00;;;;;9.19;75.93;100808.25;5016519;28;45525;-79
2022/01/08 10:49:27;;;;;;;;;9.00;6.67;;;;;9.23;75.78;100800.88;5011755;28;45392;-71
2022/01/08 10:51:57;;;;;;;;;8.67;5.00;;;;;9.14;75.88;100787.44;5016040;28;45508;-72
2022/01/08 10:54:30;;;;;;;;;7.33;6.33;;;;;9.19;76.35;100778.22;4979011;28;47719;-73
2022/01/08 10:57:02;;;;;;;;;8.67;6.00;;;;;9.30;76.11;100783.44;4986187;28;45491;-76
2022/01/08 10:59:29;;;;;;;;;7.00;6.00;;;;;9.29;76.03;100760.53;5018807;28;45466;-73
2022/01/08 11:02:15;;;;;;;;;5.67;5.67;;;;;9.42;75.68;100767.28;5017722;28;45257;-70
2022/01/08 11:04:47;;;;;;;;;12.00;9.67;;;;;9.44;75.44;100751.22;4990794;28;47490;-69
2022/01/08 11:07:16;;;;;;;;;4.67;4.67;;;;;9.44;75.39;100752.06;4997227;28;45303;-76
2022/01/08 11:09:47;;;;;;;;;8.00;5.33;;;;;9.43;75.67;100750.41;5007166;28;45520;-68
2022/01/08 11:12:19;;;;;;;;;8.00;7.67;;;;;9.31;75.59;100709.03;5016650;28;45344;-70
2022/01/08 11:17:29;;;;;;;;;9.33;7.00;;;;;9.51;75.39;100725.81;4996822;28;45283;-69
2022/01/08 11:19:59;;;;;;;;;7.33;7.33;;;;;9.48;75.39;100706.69;4996695;28;45325;-70
2022/01/08 11:22:29;;;;;;;;;11.00;7.33;;;;;9.43;75.48;100689.38;4996912;28;45343;-71
2022/01/08 11:25:30;;;;;;;;;8.67;8.67;;;;;9.57;75.57;100721.75;4997832;28;46586;-71
2022/01/08 11:28:13;;;;;;;;;6.67;6.00;;;;;9.57;75.49;100706.69;4995230;28;45617;-70
2022/01/08 11:30:52;;;;;;;;;6.67;6.00;;;;;9.54;75.43;100679.59;4978491;28;45296;-69
2022/01/08 11:33:27;;;;;;;;;10.00;5.00;;;;;9.58;75.15;100684.47;4997126;28;45310;-71
2022/01/08 11:35:54;;;;;;;;;14.00;7.00;;;;;9.58;75.45;100673.84;4996777;28;46052;-70
2022/01/08 11:38:23;;;;;;;;;7.00;5.00;;;;;9.58;75.29;100673.84;5006096;28;45361;-70
2022/01/08 11:40:51;;;;;;;;;7.00;6.00;;;;;9.66;75.33;100666.03;4999258;28;45460;-70
2022/01/08 11:43:20;;;;;;;;;9.67;6.00;;;;;9.71;75.65;100669.09;4996570;28;45562;-70
2022/01/08 11:45:55;;;;;;;;;6.67;2.33;;;;;9.74;74.74;100647.59;4996484;28;46925;-70
2022/01/08 11:48:28;;;;;;;;;7.33;3.00;;;;;9.72;74.77;100619.50;4996367;28;46639;-69
2022/01/08 11:50:56;;;;;;;;;7.67;5.33;;;;;9.78;74.71;100624.25;4996525;28;45396;-70
2022/01/08 11:53:33;;;;;;;;;9.67;8.33;;;;;9.78;74.61;100613.63;4996936;28;45499;-70
2022/01/08 11:56:05;;;;;;;;;9.00;6.67;;;;;9.87;74.56;100612.78;5011159;28;45822;-72
2022/01/08 11:58:34;;;;;;;;;6.00;5.67;;;;;9.86;74.78;100603.16;5016125;28;45346;-71
2022/01/08 12:01:11;;;;;;;;;6.33;5.33;;;;;9.84;74.21;100591.00;5016830;28;45182;-72